sensor_id;sensor_type;location;lat;lon;timestamp;pressure;altitude;pressure_sealevel;temperature;humidity
6090;BME280;3073;42.660;23.316;2023-02-17T00:00:48;95430.38;;;2.74;100.00
6090;BME280;3073;42.660;23.316;2023-02-17T00:03:15;95444.72;;;2.73;100.00
6090;BME280;3073;42.660;23.316;2023-02-17T00:05:43;95434.44;;;2.83;100.00
6090;BME280;3073;42.660;23.316;2023-02-17T00:08:10;95429.56;;;2.81;100.00
6090;BME280;3073;42.660;23.316;2023-02-17T00:10:37;95427.69;;;2.83;100.00
6090;BME280;3073;42.660;23.316;2023-02-17T00:13:04;95434.72;;;2.88;100.00
6090;BME280;3073;42.660;23.316;2023-02-17T00:15:31;95438.16;;;2.95;100.00
6090;BME280;3073;42.660;23.316;2023-02-17T00:17:57;95428.75;;;2.89;100.00
6090;BME280;3073;42.660;23.316;2023-02-17T00:20:24;95428.41;;;2.92;100.00
6090;BME280;3073;42.660;23.316;2023-02-17T00:22:52;95421.53;;;2.78;100.00
6090;BME280;3073;42.660;23.316;2023-02-17T00:25:19;95422.50;;;2.77;100.00
6090;BME280;3073;42.660;23.316;2023-02-17T00:27:46;95425.34;;;2.74;100.00
6090;BME280;3073;42.660;23.316;2023-02-17T00:30:13;95424.53;;;2.81;100.00
6090;BME280;3073;42.660;23.316;2023-02-17T00:32:41;95424.38;;;2.83;100.00
6090;BME280;3073;42.660;23.316;2023-02-17T00:35:08;95416.56;;;2.70;100.00
6090;BME280;3073;42.660;23.316;2023-02-17T00:37:35;95410.22;;;2.35;100.00
6090;BME280;3073;42.660;23.316;2023-02-17T00:40:03;95402.88;;;2.25;100.00
6090;BME280;3073;42.660;23.316;2023-02-17T00:42:30;95405.13;;;2.04;100.00
6090;BME280;3073;42.660;23.316;2023-02-17T00:44:57;95397.69;;;2.19;100.00
6090;BME280;3073;42.660;23.316;2023-02-17T00:47:24;95393.75;;;2.24;100.00
6090;BME280;3073;42.660;23.316;2023-02-17T00:49:50;95390.75;;;2.29;100.00
6090;BME280;3073;42.660;23.316;2023-02-17T00:52:17;95384.78;;;2.30;100.00
6090;BME280;3073;42.660;23.316;2023-02-17T00:54:44;95388.69;;;2.32;100.00
6090;BME280;3073;42.660;23.316;2023-02-17T00:57:12;95401.63;;;2.21;100.00
6090;BME280;3073;42.660;23.316;2023-02-17T00:59:39;95396.91;;;2.26;100.00
6090;BME280;3073;42.660;23.316;2023-02-17T01:02:06;95397.56;;;2.20;100.00
6090;BME280;3073;42.660;23.316;2023-02-17T01:04:33;95398.53;;;2.03;100.00
6090;BME280;3073;42.660;23.316;2023-02-17T01:07:00;95395.19;;;2.19;100.00
6090;BME280;3073;42.660;23.316;2023-02-17T01:09:27;95389.34;;;2.26;100.00
6090;BME280;3073;42.660;23.316;2023-02-17T01:11:53;95386.44;;;2.37;100.00
6090;BME280;3073;42.660;23.316;2023-02-17T01:14:22;95393.66;;;2.48;100.00
6090;BME280;3073;42.660;23.316;2023-02-17T01:16:48;95386.53;;;2.21;100.00
6090;BME280;3073;42.660;23.316;2023-02-17T01:19:18;95392.53;;;2.12;100.00
6090;BME280;3073;42.660;23.316;2023-02-17T01:21:44;95389.41;;;2.02;100.00
6090;BME280;3073;42.660;23.316;2023-02-17T01:24:12;95392.53;;;2.04;100.00
6090;BME280;3073;42.660;23.316;2023-02-17T01:26:38;95396.63;;;2.05;100.00
6090;BME280;3073;42.660;23.316;2023-02-17T01:29:06;95388.47;;;2.03;100.00
6090;BME280;3073;42.660;23.316;2023-02-17T01:31:35;95378.69;;;2.16;100.00
6090;BME280;3073;42.660;23.316;2023-02-17T01:34:03;95378.84;;;2.15;100.00
6090;BME280;3073;42.660;23.316;2023-02-17T01:36:30;95373.31;;;2.19;100.00
6090;BME280;3073;42.660;23.316;2023-02-17T01:38:57;95377.72;;;2.17;100.00
6090;BME280;3073;42.660;23.316;2023-02-17T01:41:25;95375.63;;;1.90;100.00
6090;BME280;3073;42.660;23.316;2023-02-17T01:44:18;95372.44;;;1.96;100.00
6090;BME280;3073;42.660;23.316;2023-02-17T01:46:48;95376.38;;;1.90;100.00
6090;BME280;3073;42.660;23.316;2023-02-17T01:49:27;95377.34;;;1.89;100.00
6090;BME280;3073;42.660;23.316;2023-02-17T01:51:59;95377.53;;;1.64;100.00
6090;BME280;3073;42.660;23.316;2023-02-17T01:54:32;95382.56;;;1.55;100.00
6090;BME280;3073;42.660;23.316;2023-02-17T01:57:01;95378.00;;;1.51;100.00
6090;BME280;3073;42.660;23.316;2023-02-17T01:59:29;95377.69;;;1.62;100.00
6090;BME280;3073;42.660;23.316;2023-02-17T02:01:59;95379.13;;;1.57;100.00
6090;BME280;3073;42.660;23.316;2023-02-17T02:04:31;95375.97;;;1.63;100.00
6090;BME280;3073;42.660;23.316;2023-02-17T02:06:59;95376.25;;;1.68;100.00
6090;BME280;3073;42.660;23.316;2023-02-17T02:09:29;95371.84;;;1.78;100.00
6090;BME280;3073;42.660;23.316;2023-02-17T02:11:58;95375.75;;;1.80;100.00
6090;BME280;3073;42.660;23.316;2023-02-17T02:14:25;95370.41;;;1.91;100.00
6090;BME280;3073;42.660;23.316;2023-02-17T02:17:01;95377.16;;;1.91;100.00
6090;BME280;3073;42.660;23.316;2023-02-17T02:28:45;95371.03;;;1.93;100.00
6090;BME280;3073;42.660;23.316;2023-02-17T02:31:28;95381.28;;;1.68;100.00
6090;BME280;3073;42.660;23.316;2023-02-17T02:34:08;95372.03;;;1.76;100.00
6090;BME280;3073;42.660;23.316;2023-02-17T02:36:38;95383.50;;;1.79;100.00
6090;BME280;3073;42.660;23.316;2023-02-17T02:39:10;95370.25;;;1.93;100.00
6090;BME280;3073;42.660;23.316;2023-02-17T02:41:40;95373.84;;;1.98;100.00
6090;BME280;3073;42.660;23.316;2023-02-17T02:44:09;95378.13;;;1.90;100.00
6090;BME280;3073;42.660;23.316;2023-02-17T02:46:38;95368.03;;;1.98;100.00
6090;BME280;3073;42.660;23.316;2023-02-17T02:49:06;95375.09;;;2.02;100.00
6090;BME280;3073;42.660;23.316;2023-02-17T02:51:42;95369.28;;;2.02;100.00
6090;BME280;3073;42.660;23.316;2023-02-17T02:54:20;95362.81;;;2.07;100.00
6090;BME280;3073;42.660;23.316;2023-02-17T02:57:07;95373.84;;;2.06;100.00
6090;BME280;3073;42.660;23.316;2023-02-17T02:59:46;95363.59;;;2.08;100.00
6090;BME280;3073;42.660;23.316;2023-02-17T03:02:20;95367.97;;;2.14;100.00
6090;BME280;3073;42.660;23.316;2023-02-17T03:04:57;95376.03;;;2.10;100.00
6090;BME280;3073;42.660;23.316;2023-02-17T03:07:30;95367.97;;;2.22;100.00
6090;BME280;3073;42.660;23.316;2023-02-17T03:09:59;95377.56;;;2.27;100.00
6090;BME280;3073;42.660;23.316;2023-02-17T03:12:28;95369.81;;;2.28;100.00
6090;BME280;3073;42.660;23.316;2023-02-17T03:14:59;95373.81;;;2.15;100.00
6090;BME280;3073;42.660;23.316;2023-02-17T03:17:29;95366.91;;;2.00;100.00
6090;BME280;3073;42.660;23.316;2023-02-17T03:19:59;95376.09;;;1.77;100.00
6090;BME280;3073;42.660;23.316;2023-02-17T03:22:31;95368.84;;;1.82;100.00
6090;BME280;3073;42.660;23.316;2023-02-17T03:24:59;95378.88;;;1.90;100.00
6090;BME280;3073;42.660;23.316;2023-02-17T03:27:26;95363.31;;;1.87;100.00
6090;BME280;3073;42.660;23.316;2023-02-17T03:29:53;95366.47;;;1.89;100.00
6090;BME280;3073;42.660;23.316;2023-02-17T03:32:20;95368.34;;;1.95;100.00
6090;BME280;3073;42.660;23.316;2023-02-17T03:34:47;95370.75;;;1.64;100.00
6090;BME280;3073;42.660;23.316;2023-02-17T03:37:15;95379.41;;;1.70;100.00
6090;BME280;3073;42.660;23.316;2023-02-17T03:39:42;95370.28;;;1.61;100.00
6090;BME280;3073;42.660;23.316;2023-02-17T03:42:09;95361.50;;;1.65;100.00
6090;BME280;3073;42.660;23.316;2023-02-17T03:44:36;95355.84;;;1.63;100.00
6090;BME280;3073;42.660;23.316;2023-02-17T03:47:02;95379.13;;;1.57;100.00
6090;BME280;3073;42.660;23.316;2023-02-17T03:49:29;95368.28;;;1.56;100.00
6090;BME280;3073;42.660;23.316;2023-02-17T03:51:56;95374.38;;;1.53;100.00
6090;BME280;3073;42.660;23.316;2023-02-17T03:54:25;95375.31;;;1.61;100.00
6090;BME280;3073;42.660;23.316;2023-02-17T03:56:52;95376.91;;;1.62;100.00
6090;BME280;3073;42.660;23.316;2023-02-17T03:59:19;95367.97;;;1.43;100.00
6090;BME280;3073;42.660;23.316;2023-02-17T04:01:46;95365.16;;;1.30;100.00
6090;BME280;3073;42.660;23.316;2023-02-17T04:04:13;95377.88;;;1.36;100.00
6090;BME280;3073;42.660;23.316;2023-02-17T04:06:40;95382.59;;;1.39;100.00
6090;BME280;3073;42.660;23.316;2023-02-17T04:09:06;95370.94;;;1.38;100.00
6090;BME280;3073;42.660;23.316;2023-02-17T04:11:35;95367.81;;;1.20;100.00
6090;BME280;3073;42.660;23.316;2023-02-17T04:14:02;95370.31;;;1.04;100.00
6090;BME280;3073;42.660;23.316;2023-02-17T04:16:30;95380.06;;;1.15;100.00
6090;BME280;3073;42.660;23.316;2023-02-17T04:18:56;95371.09;;;1.21;100.00
6090;BME280;3073;42.660;23.316;2023-02-17T04:21:24;95377.09;;;1.36;100.00
6090;BME280;3073;42.660;23.316;2023-02-17T04:23:50;95369.34;;;1.53;100.00
6090;BME280;3073;42.660;23.316;2023-02-17T04:26:19;95365.91;;;1.63;100.00
6090;BME280;3073;42.660;23.316;2023-02-17T04:28:47;95358.03;;;1.66;100.00
6090;BME280;3073;42.660;23.316;2023-02-17T04:31:14;95363.03;;;1.74;100.00
6090;BME280;3073;42.660;23.316;2023-02-17T04:33:41;95368.53;;;1.85;100.00
6090;BME280;3073;42.660;23.316;2023-02-17T04:36:08;95373.56;;;1.77;100.00
6090;BME280;3073;42.660;23.316;2023-02-17T04:38:36;95369.69;;;1.59;100.00
6090;BME280;3073;42.660;23.316;2023-02-17T04:41:04;95378.31;;;1.64;100.00
6090;BME280;3073;42.660;23.316;2023-02-17T04:43:32;95372.97;;;1.67;100.00
6090;BME280;3073;42.660;23.316;2023-02-17T04:46:00;95375.94;;;1.71;100.00
6090;BME280;3073;42.660;23.316;2023-02-17T04:48:27;95376.91;;;1.62;100.00
6090;BME280;3073;42.660;23.316;2023-02-17T04:50:53;95376.91;;;1.62;100.00
6090;BME280;3073;42.660;23.316;2023-02-17T04:53:20;95377.84;;;1.69;100.00
6090;BME280;3073;42.660;23.316;2023-02-17T04:55:48;95374.88;;;1.49;100.00
6090;BME280;3073;42.660;23.316;2023-02-17T04:58:16;95389.81;;;1.42;100.00
6090;BME280;3073;42.660;23.316;2023-02-17T05:00:42;95391.06;;;1.54;100.00
6090;BME280;3073;42.660;23.316;2023-02-17T05:03:11;95370.63;;;1.58;100.00
6090;BME280;3073;42.660;23.316;2023-02-17T05:05:37;95380.97;;;1.71;100.00
6090;BME280;3073;42.660;23.316;2023-02-17T05:08:04;95383.50;;;1.71;100.00
6090;BME280;3073;42.660;23.316;2023-02-17T05:10:31;95383.03;;;1.75;100.00
6090;BME280;3073;42.660;23.316;2023-02-17T05:12:58;95398.91;;;1.76;100.00
6090;BME280;3073;42.660;23.316;2023-02-17T05:15:25;95389.44;;;1.86;100.00
6090;BME280;3073;42.660;23.316;2023-02-17T05:17:51;95392.59;;;1.88;100.00
6090;BME280;3073;42.660;23.316;2023-02-17T05:20:20;95390.84;;;1.96;100.00
6090;BME280;3073;42.660;23.316;2023-02-17T05:22:47;95406.72;;;1.97;100.00
6090;BME280;3073;42.660;23.316;2023-02-17T05:25:14;95405.13;;;2.12;100.00
6090;BME280;3073;42.660;23.316;2023-02-17T05:27:41;95416.91;;;2.20;100.00
6090;BME280;3073;42.660;23.316;2023-02-17T05:30:08;95414.06;;;2.15;100.00
6090;BME280;3073;42.660;23.316;2023-02-17T05:32:35;95409.22;;;2.05;100.00
6090;BME280;3073;42.660;23.316;2023-02-17T05:35:02;95414.94;;;1.83;100.00
6090;BME280;3073;42.660;23.316;2023-02-17T05:37:30;95418.88;;;1.53;100.00
6090;BME280;3073;42.660;23.316;2023-02-17T05:39:57;95414.00;;;1.51;100.00
6090;BME280;3073;42.660;23.316;2023-02-17T05:42:27;95424.69;;;1.70;100.00
6090;BME280;3073;42.660;23.316;2023-02-17T05:44:54;95422.47;;;1.75;100.00
6090;BME280;3073;42.660;23.316;2023-02-17T05:47:21;95426.88;;;1.81;100.00
6090;BME280;3073;42.660;23.316;2023-02-17T05:49:48;95438.81;;;1.71;100.00
6090;BME280;3073;42.660;23.316;2023-02-17T05:52:15;95438.97;;;1.85;100.00
6090;BME280;3073;42.660;23.316;2023-02-17T05:54:44;95431.13;;;1.64;100.00
6090;BME280;3073;42.660;23.316;2023-02-17T05:57:11;95429.88;;;1.76;100.00
6090;BME280;3073;42.660;23.316;2023-02-17T05:59:37;95434.38;;;1.97;100.00
6090;BME280;3073;42.660;23.316;2023-02-17T06:02:04;95437.84;;;2.04;100.00
6090;BME280;3073;42.660;23.316;2023-02-17T06:04:32;95440.06;;;1.99;100.00
6090;BME280;3073;42.660;23.316;2023-02-17T06:06:59;95447.91;;;2.12;100.00
6090;BME280;3073;42.660;23.316;2023-02-17T06:09:26;95437.50;;;2.23;100.00
6090;BME280;3073;42.660;23.316;2023-02-17T06:11:54;95446.50;;;2.10;100.00
6090;BME280;3073;42.660;23.316;2023-02-17T06:14:21;95446.97;;;2.05;100.00
6090;BME280;3073;42.660;23.316;2023-02-17T06:16:48;95437.50;;;2.23;100.00
6090;BME280;3073;42.660;23.316;2023-02-17T06:19:15;95442.03;;;2.28;100.00
6090;BME280;3073;42.660;23.316;2023-02-17T06:21:42;95448.47;;;2.30;100.00
6090;BME280;3073;42.660;23.316;2023-02-17T06:24:09;95448.41;;;2.54;100.00
6090;BME280;3073;42.660;23.316;2023-02-17T06:26:36;95438.59;;;2.68;100.00
6090;BME280;3073;42.660;23.316;2023-02-17T06:29:04;95442.28;;;2.88;100.00
6090;BME280;3073;42.660;23.316;2023-02-17T06:31:31;95438.97;;;3.18;100.00
6090;BME280;3073;42.660;23.316;2023-02-17T06:33:58;95444.03;;;3.63;100.00
6090;BME280;3073;42.660;23.316;2023-02-17T06:36:28;95442.06;;;3.88;100.00
6090;BME280;3073;42.660;23.316;2023-02-17T06:38:54;95438.13;;;4.38;100.00
6090;BME280;3073;42.660;23.316;2023-02-17T06:41:21;95446.91;;;4.86;100.00
6090;BME280;3073;42.660;23.316;2023-02-17T06:43:48;95438.44;;;4.93;100.00
6090;BME280;3073;42.660;23.316;2023-02-17T06:46:16;95450.78;;;5.03;100.00
6090;BME280;3073;42.660;23.316;2023-02-17T06:48:44;95458.59;;;5.23;100.00
6090;BME280;3073;42.660;23.316;2023-02-17T06:51:11;95459.22;;;5.46;100.00
6090;BME280;3073;42.660;23.316;2023-02-17T06:53:38;95460.28;;;5.58;99.84
6090;BME280;3073;42.660;23.316;2023-02-17T06:56:05;95463.34;;;5.75;97.76
6090;BME280;3073;42.660;23.316;2023-02-17T06:58:33;95460.34;;;5.64;96.31
6090;BME280;3073;42.660;23.316;2023-02-17T07:01:00;95458.47;;;5.94;94.20
6090;BME280;3073;42.660;23.316;2023-02-17T07:03:30;95456.22;;;5.85;91.77
6090;BME280;3073;42.660;23.316;2023-02-17T07:05:57;95465.53;;;5.99;90.72
6090;BME280;3073;42.660;23.316;2023-02-17T07:08:24;95471.91;;;6.16;87.01
6090;BME280;3073;42.660;23.316;2023-02-17T07:10:51;95460.72;;;6.38;84.57
6090;BME280;3073;42.660;23.316;2023-02-17T07:13:18;95465.72;;;6.25;86.55
6090;BME280;3073;42.660;23.316;2023-02-17T07:15:45;95467.97;;;6.41;85.82
6090;BME280;3073;42.660;23.316;2023-02-17T07:18:12;95465.84;;;6.45;85.76
6090;BME280;3073;42.660;23.316;2023-02-17T07:20:40;95467.47;;;6.59;85.15
6090;BME280;3073;42.660;23.316;2023-02-17T07:23:07;95476.69;;;7.14;81.56
6090;BME280;3073;42.660;23.316;2023-02-17T07:25:34;95472.47;;;7.41;78.05
6090;BME280;3073;42.660;23.316;2023-02-17T07:28:01;95480.38;;;7.85;74.67
6090;BME280;3073;42.660;23.316;2023-02-17T07:30:28;95479.19;;;8.14;72.55
6090;BME280;3073;42.660;23.316;2023-02-17T07:32:54;95485.03;;;8.73;69.48
6090;BME280;3073;42.660;23.316;2023-02-17T07:35:21;95468.59;;;9.27;66.75
6090;BME280;3073;42.660;23.316;2023-02-17T07:37:49;95477.88;;;9.46;65.29
6090;BME280;3073;42.660;23.316;2023-02-17T07:40:17;95479.34;;;9.29;64.80
6090;BME280;3073;42.660;23.316;2023-02-17T07:42:44;95477.88;;;9.77;64.22
6090;BME280;3073;42.660;23.316;2023-02-17T07:45:10;95479.00;;;10.13;62.13
6090;BME280;3073;42.660;23.316;2023-02-17T07:47:37;95479.47;;;10.28;61.36
6090;BME280;3073;42.660;23.316;2023-02-17T07:50:05;95476.00;;;10.47;59.30
6090;BME280;3073;42.660;23.316;2023-02-17T07:52:32;95480.19;;;10.96;57.27
6090;BME280;3073;42.660;23.316;2023-02-17T07:55:01;95481.72;;;11.15;56.82
6090;BME280;3073;42.660;23.316;2023-02-17T07:57:28;95481.84;;;11.68;55.90
6090;BME280;3073;42.660;23.316;2023-02-17T07:59:55;95478.81;;;11.90;54.60
6090;BME280;3073;42.660;23.316;2023-02-17T08:02:21;95472.81;;;11.66;54.51
6090;BME280;3073;42.660;23.316;2023-02-17T08:04:48;95472.13;;;11.59;55.18
6090;BME280;3073;42.660;23.316;2023-02-17T08:07:16;95479.41;;;12.50;52.58
6090;BME280;3073;42.660;23.316;2023-02-17T08:09:43;95468.81;;;12.58;51.83
6090;BME280;3073;42.660;23.316;2023-02-17T08:12:29;95470.53;;;13.15;50.21
6090;BME280;3073;42.660;23.316;2023-02-17T08:15:31;95468.94;;;13.99;48.92
6090;BME280;3073;42.660;23.316;2023-02-17T08:17:58;95472.91;;;14.23;48.45
6090;BME280;3073;42.660;23.316;2023-02-17T08:20:26;95475.31;;;14.63;46.85
6090;BME280;3073;42.660;23.316;2023-02-17T08:22:52;95472.88;;;14.73;46.40
6090;BME280;3073;42.660;23.316;2023-02-17T08:25:19;95470.56;;;14.93;46.16
6090;BME280;3073;42.660;23.316;2023-02-17T08:27:48;95471.16;;;15.44;44.98
6090;BME280;3073;42.660;23.316;2023-02-17T08:30:15;95464.84;;;15.35;45.36
6090;BME280;3073;42.660;23.316;2023-02-17T08:32:44;95470.84;;;16.26;43.70
6090;BME280;3073;42.660;23.316;2023-02-17T08:35:11;95472.22;;;16.38;43.40
6090;BME280;3073;42.660;23.316;2023-02-17T08:37:38;95464.31;;;16.13;43.22
6090;BME280;3073;42.660;23.316;2023-02-17T08:40:06;95461.41;;;16.41;42.75
6090;BME280;3073;42.660;23.316;2023-02-17T08:42:34;95467.97;;;16.22;43.52
6090;BME280;3073;42.660;23.316;2023-02-17T08:45:02;95458.38;;;16.91;42.40
6090;BME280;3073;42.660;23.316;2023-02-17T08:47:29;95454.84;;;17.08;41.91
6090;BME280;3073;42.660;23.316;2023-02-17T08:49:56;95456.50;;;17.49;41.21
6090;BME280;3073;42.660;23.316;2023-02-17T08:52:23;95462.78;;;18.14;39.70
6090;BME280;3073;42.660;23.316;2023-02-17T08:54:49;95455.28;;;18.32;39.08
6090;BME280;3073;42.660;23.316;2023-02-17T08:57:17;95459.28;;;19.04;38.40
6090;BME280;3073;42.660;23.316;2023-02-17T08:59:45;95455.38;;;19.07;38.30
6090;BME280;3073;42.660;23.316;2023-02-17T09:02:14;95450.41;;;19.15;37.64
6090;BME280;3073;42.660;23.316;2023-02-17T09:04:41;95455.41;;;19.61;37.12
6090;BME280;3073;42.660;23.316;2023-02-17T09:07:10;95457.72;;;20.59;35.41
6090;BME280;3073;42.660;23.316;2023-02-17T09:09:37;95461.84;;;20.65;35.03
6090;BME280;3073;42.660;23.316;2023-02-17T09:12:05;95448.13;;;19.09;35.39
6090;BME280;3073;42.660;23.316;2023-02-17T09:14:33;95455.78;;;19.34;34.38
6090;BME280;3073;42.660;23.316;2023-02-17T09:17:00;95458.72;;;19.66;32.45
6090;BME280;3073;42.660;23.316;2023-02-17T09:19:28;95447.72;;;19.35;32.86
6090;BME280;3073;42.660;23.316;2023-02-17T09:21:54;95445.16;;;18.66;32.30
6090;BME280;3073;42.660;23.316;2023-02-17T09:24:21;95447.00;;;18.61;32.58
6090;BME280;3073;42.660;23.316;2023-02-17T09:26:48;95447.53;;;18.58;33.31
6090;BME280;3073;42.660;23.316;2023-02-17T09:29:15;95444.25;;;19.06;32.84
6090;BME280;3073;42.660;23.316;2023-02-17T09:31:41;95444.25;;;19.60;31.38
6090;BME280;3073;42.660;23.316;2023-02-17T09:34:10;95446.75;;;20.43;31.14
6090;BME280;3073;42.660;23.316;2023-02-17T09:36:39;95452.41;;;20.45;30.94
6090;BME280;3073;42.660;23.316;2023-02-17T09:39:06;95434.84;;;20.66;30.56
6090;BME280;3073;42.660;23.316;2023-02-17T09:41:37;95443.91;;;20.11;30.58
6090;BME280;3073;42.660;23.316;2023-02-17T09:44:20;95443.06;;;19.42;31.07
6090;BME280;3073;42.660;23.316;2023-02-17T09:46:52;95445.78;;;19.12;31.47
6090;BME280;3073;42.660;23.316;2023-02-17T09:49:25;95444.03;;;19.57;31.32
6090;BME280;3073;42.660;23.316;2023-02-17T09:51:57;95442.53;;;19.45;31.66
6090;BME280;3073;42.660;23.316;2023-02-17T09:54:28;95440.03;;;19.25;30.56
6090;BME280;3073;42.660;23.316;2023-02-17T09:56:58;95449.78;;;19.38;30.79
6090;BME280;3073;42.660;23.316;2023-02-17T09:59:31;95441.81;;;19.25;30.27
6090;BME280;3073;42.660;23.316;2023-02-17T10:02:05;95441.50;;;19.41;30.13
6090;BME280;3073;42.660;23.316;2023-02-17T10:04:35;95438.44;;;19.29;30.43
6090;BME280;3073;42.660;23.316;2023-02-17T10:07:10;95427.22;;;18.95;30.90
6090;BME280;3073;42.660;23.316;2023-02-17T10:09:46;95439.00;;;18.52;30.16
6090;BME280;3073;42.660;23.316;2023-02-17T10:12:17;95423.00;;;18.15;30.90
6090;BME280;3073;42.660;23.316;2023-02-17T10:14:49;95426.56;;;18.49;30.64
6090;BME280;3073;42.660;23.316;2023-02-17T10:17:21;95421.97;;;18.21;30.73
6090;BME280;3073;42.660;23.316;2023-02-17T10:19:52;95416.16;;;18.84;30.17
6090;BME280;3073;42.660;23.316;2023-02-17T10:22:22;95410.56;;;18.37;30.57
6090;BME280;3073;42.660;23.316;2023-02-17T10:24:49;95407.25;;;19.06;30.00
6090;BME280;3073;42.660;23.316;2023-02-17T10:27:33;95408.97;;;18.66;30.03
6090;BME280;3073;42.660;23.316;2023-02-17T10:30:18;95410.91;;;16.82;31.57
6090;BME280;3073;42.660;23.316;2023-02-17T10:32:58;95395.13;;;17.81;31.51
6090;BME280;3073;42.660;23.316;2023-02-17T10:35:39;95392.50;;;18.22;30.43
6090;BME280;3073;42.660;23.316;2023-02-17T10:38:14;95399.50;;;17.56;30.97
6090;BME280;3073;42.660;23.316;2023-02-17T10:40:45;95400.19;;;18.67;30.89
6090;BME280;3073;42.660;23.316;2023-02-17T10:43:17;95393.75;;;18.39;30.58
6090;BME280;3073;42.660;23.316;2023-02-17T10:45:47;95387.91;;;18.98;30.44
6090;BME280;3073;42.660;23.316;2023-02-17T10:48:17;95394.94;;;19.75;29.09
6090;BME280;3073;42.660;23.316;2023-02-17T10:50:46;95391.22;;;19.52;29.23
6090;BME280;3073;42.660;23.316;2023-02-17T10:53:16;95377.31;;;18.00;31.06
6090;BME280;3073;42.660;23.316;2023-02-17T10:55:52;95379.28;;;19.13;30.47
6090;BME280;3073;42.660;23.316;2023-02-17T10:58:24;95369.66;;;19.96;30.18
6090;BME280;3073;42.660;23.316;2023-02-17T11:00:54;95375.69;;;20.44;29.07
6090;BME280;3073;42.660;23.316;2023-02-17T11:03:24;95373.81;;;21.16;28.53
6090;BME280;3073;42.660;23.316;2023-02-17T11:05:53;95372.25;;;19.23;29.64
6090;BME280;3073;42.660;23.316;2023-02-17T11:08:28;95377.03;;;19.79;29.71
6090;BME280;3073;42.660;23.316;2023-02-17T11:11:02;95374.47;;;20.60;29.02
6090;BME280;3073;42.660;23.316;2023-02-17T11:13:33;95371.72;;;20.51;29.35
6090;BME280;3073;42.660;23.316;2023-02-17T11:16:01;95371.13;;;20.78;29.13
6090;BME280;3073;42.660;23.316;2023-02-17T11:18:31;95365.56;;;20.90;28.85
6090;BME280;3073;42.660;23.316;2023-02-17T11:21:00;95376.69;;;21.14;28.65
6090;BME280;3073;42.660;23.316;2023-02-17T11:23:29;95367.09;;;19.18;29.53
6090;BME280;3073;42.660;23.316;2023-02-17T11:26:00;95360.81;;;19.29;30.58
6090;BME280;3073;42.660;23.316;2023-02-17T11:28:27;95365.28;;;20.20;30.01
6090;BME280;3073;42.660;23.316;2023-02-17T11:30:55;95360.81;;;20.31;29.63
6090;BME280;3073;42.660;23.316;2023-02-17T11:33:28;95363.06;;;20.61;29.21
6090;BME280;3073;42.660;23.316;2023-02-17T11:35:56;95358.13;;;21.02;29.11
6090;BME280;3073;42.660;23.316;2023-02-17T11:38:26;95356.34;;;20.60;28.91
6090;BME280;3073;42.660;23.316;2023-02-17T11:40:58;95356.66;;;20.30;29.52
6090;BME280;3073;42.660;23.316;2023-02-17T11:43:26;95350.59;;;19.53;30.63
6090;BME280;3073;42.660;23.316;2023-02-17T11:46:05;95346.38;;;19.62;30.13
6090;BME280;3073;42.660;23.316;2023-02-17T11:48:56;95347.34;;;19.71;30.17
6090;BME280;3073;42.660;23.316;2023-02-17T11:51:31;95351.22;;;20.26;30.16
6090;BME280;3073;42.660;23.316;2023-02-17T11:54:05;95347.56;;;19.75;30.76
6090;BME280;3073;42.660;23.316;2023-02-17T11:56:40;95337.19;;;20.32;30.32
6090;BME280;3073;42.660;23.316;2023-02-17T11:59:26;95338.16;;;20.84;30.01
6090;BME280;3073;42.660;23.316;2023-02-17T12:02:07;95339.22;;;21.20;29.82
6090;BME280;3073;42.660;23.316;2023-02-17T12:04:41;95332.88;;;21.45;29.17
6090;BME280;3073;42.660;23.316;2023-02-17T12:07:31;95326.63;;;20.71;29.44
6090;BME280;3073;42.660;23.316;2023-02-17T12:10:24;95332.13;;;21.07;29.72
6090;BME280;3073;42.660;23.316;2023-02-17T12:13:14;95320.00;;;21.40;29.72
6090;BME280;3073;42.660;23.316;2023-02-17T12:15:55;95318.47;;;21.52;29.59
6090;BME280;3073;42.660;23.316;2023-02-17T12:18:36;95308.09;;;21.20;29.91
6090;BME280;3073;42.660;23.316;2023-02-17T12:21:12;95311.69;;;22.02;29.49
6090;BME280;3073;42.660;23.316;2023-02-17T12:24:02;95307.91;;;19.79;30.76
6090;BME280;3073;42.660;23.316;2023-02-17T12:26:35;95293.66;;;20.72;30.00
6090;BME280;3073;42.660;23.316;2023-02-17T12:29:20;95304.16;;;20.62;29.87
6090;BME280;3073;42.660;23.316;2023-02-17T12:32:15;95289.28;;;19.77;31.19
6090;BME280;3073;42.660;23.316;2023-02-17T12:34:49;95291.97;;;19.28;31.76
6090;BME280;3073;42.660;23.316;2023-02-17T12:37:22;95287.06;;;19.89;30.99
6090;BME280;3073;42.660;23.316;2023-02-17T12:39:52;95285.09;;;20.52;30.39
6090;BME280;3073;42.660;23.316;2023-02-17T12:42:23;95275.50;;;21.09;30.06
6090;BME280;3073;42.660;23.316;2023-02-17T12:44:54;95272.88;;;20.11;30.37
6090;BME280;3073;42.660;23.316;2023-02-17T12:47:28;95269.50;;;20.76;30.28
6090;BME280;3073;42.660;23.316;2023-02-17T12:50:00;95266.41;;;20.74;30.34
6090;BME280;3073;42.660;23.316;2023-02-17T12:52:31;95266.91;;;20.10;30.64
6090;BME280;3073;42.660;23.316;2023-02-17T12:55:05;95266.25;;;20.47;29.95
6090;BME280;3073;42.660;23.316;2023-02-17T12:57:40;95262.84;;;20.70;30.13
6090;BME280;3073;42.660;23.316;2023-02-17T13:00:19;95260.63;;;20.16;30.54
6090;BME280;3073;42.660;23.316;2023-02-17T13:02:46;95256.19;;;20.64;30.10
6090;BME280;3073;42.660;23.316;2023-02-17T13:05:20;95268.41;;;20.40;30.29
6090;BME280;3073;42.660;23.316;2023-02-17T13:07:55;95260.09;;;20.80;30.14
6090;BME280;3073;42.660;23.316;2023-02-17T13:10:34;95258.81;;;20.96;29.98
6090;BME280;3073;42.660;23.316;2023-02-17T13:13:04;95262.34;;;20.68;29.96
6090;BME280;3073;42.660;23.316;2023-02-17T13:15:38;95263.28;;;20.35;30.36
6090;BME280;3073;42.660;23.316;2023-02-17T13:18:11;95263.03;;;20.55;30.09
6090;BME280;3073;42.660;23.316;2023-02-17T13:20:50;95256.56;;;21.08;29.28
6090;BME280;3073;42.660;23.316;2023-02-17T13:23:35;95263.00;;;21.62;29.49
6090;BME280;3073;42.660;23.316;2023-02-17T13:26:10;95259.19;;;21.27;28.98
6090;BME280;3073;42.660;23.316;2023-02-17T13:28:39;95268.06;;;21.40;29.09
6090;BME280;3073;42.660;23.316;2023-02-17T13:31:14;95258.38;;;21.59;29.00
6090;BME280;3073;42.660;23.316;2023-02-17T13:33:44;95254.34;;;20.83;29.43
6090;BME280;3073;42.660;23.316;2023-02-17T13:36:15;95253.84;;;19.44;29.51